Weather at Almaty Airport

Public forecast

Using degrees Celsius for public forecast. Weather courtesy of forecast.io.

Current aviation weather report (METAR) for Almaty Airport

Retrieved 2020/11/25 07:30 UTC (0 seconds ago):

UAAA 250730Z VRB01MPS 1600 R05L/1900N R05R/1600 BR BKN007 M05/M06 Q1025 R05L/3///50 R05R/3///45 NOSIG

Aviation forecast (TAF) for Almaty Airport

Retrieved 2020/11/25 06:21 UTC (1 hour ago):

TAF UAAA 250500Z 2506/2606 VRB02MPS 1800 BR BKN011 BKN020 TXM04/2509Z TNM14/2601Z TEMPO 2506/2508 0800 FZFG VV003 TEMPO 2509/2512 3100 TEMPO 2514/2602 0300 FZFG VV002